This is the latest recevied weather packets stored in our database for station/object HA2SKA-1. If no packets are shown the sender has not sent any weather packets the latest 10 day(s).
| Time | Temp. | Humidity | Pressure | Rain* | Wind** | Luminosity | Snow |
|---|---|---|---|---|---|---|---|
| 1778131843 | 18.33° C | 59% | 1014.2 hPa | - | - | - | - |
| 1778130943 | 18.89° C | 56% | 1014.1 hPa | - | - | - | - |
| 1778130043 | 18.89° C | 57% | 1014.1 hPa | - | - | - | - |
| 1778129143 | 17.78° C | 61% | 1014 hPa | - | - | - | - |
| 1778128242 | 17.78° C | 58% | 1013.7 hPa | - | - | - | - |
| 1778127342 | 17.22° C | 61% | 1013.5 hPa | - | - | - | - |
| 1778126442 | 16.11° C | 63% | 1013.3 hPa | - | - | - | - |
| 1778125542 | 16.67° C | 63% | 1013.2 hPa | - | - | - | - |
| 1778124642 | 16.67° C | 63% | 1013.1 hPa | - | - | - | - |
| 1778123742 | 16.67° C | 62% | 1013 hPa | - | - | - | - |
| 1778122842 | 17.22° C | 62% | 1013.1 hPa | - | - | - | - |
| 1778121942 | 16.67° C | 63% | 1013.1 hPa | - | - | - | - |
| 1778121042 | 16.67° C | 64% | 1012.8 hPa | - | - | - | - |
| 1778120142 | 17.22° C | 62% | 1012.9 hPa | - | - | - | - |
| 1778119241 | 17.22° C | 63% | 1013.1 hPa | - | - | - | - |
| 1778118341 | 16.67° C | 68% | 1013 hPa | - | - | - | - |
| 1778117441 | 15° C | 79% | 1013 hPa | - | - | - | - |
| 1778116541 | 16.67° C | 71% | 1012.9 hPa | - | - | - | - |
| 1778115641 | 16.67° C | 72% | 1012.9 hPa | - | - | - | - |
| 1778114741 | 17.22° C | 72% | 1012.9 hPa | - | - | - | - |
| 1778113841 | 17.22° C | 71% | 1013 hPa | - | - | - | - |
| 1778112941 | 17.78° C | 71% | 1012.9 hPa | - | - | - | - |
| 1778112041 | 17.78° C | 71% | 1013 hPa | - | - | - | - |
| 1778111141 | 17.22° C | 73% | 1013 hPa | - | - | - | - |
| 1778110240 | 16.67° C | 75% | 1013.2 hPa | - | - | - | - |
* Rain since midnight (hover to see other rain measurements)
** Current wind speed in m/s (hover to see current wind gust speed)